Ameagle, WV

7:19 PM EST on December 25, 2014 (GMT -0500)
Joes Creek | Change Station
CLOSE
Current Station
Personal Weather Station
Location: Comfort, WV
Elevation: 784 ft
Nearby Weather Stations

Elev 784 ft 38.12 °N, 81.59 °W | Updated 11 seconds ago

Partly Cloudy
Partly Cloudy
34.5 °F
Feels Like 34 °F
N
0.0
Wind Variable Wind from WSW
Gusts 1.0 mph

Today
High -- | Low -- °F
--% Chance of Precip.
Yesterday
High -- | Low -- °F
Precip. -- in
7:40 AM 5:12 PM
Waxing Crescent, 20% visible
Pressure 30.26 in
Visibility 10.0 miles
Clouds Clear
Windchill 34 °F
Dew Point 33 °F
Humidity 94%
Rainfall 0.00 in
Snow Depth Not available.
UV 0 out of 12
Pollen .10 out of 12
Air Quality Not available.
Flu Activity Not available.
METAR KBKW 252351Z AUTO 00000KT 10SM CLR M01/M03 A3018 RMK AO2 SLP246 60000 T10061028 10044 21006 53023

More Conditions Fewer Conditions

Pressure 30.26 in
Visibility 10.0 miles
Clouds Clear
Windchill 34 °F
Dew Point 33 °F
Humidity 94%
Rainfall 0.00 in
Snow Depth Not available.
UV 0 out of 12
Pollen .10 out of 12
Air Quality Not available.
Flu Activity Not available.
METAR KBKW 252351Z AUTO 00000KT 10SM CLR M01/M03 A3018 RMK AO2 SLP246 60000 T10061028 10044 21006 53023

More Conditions Fewer Conditions

10-Day Weather Forecast

Almanac

Astronomy

Dec. 25, 2014 Rise Set
Actual Time
Civil Twilight
Nautical Twilight
Astronomical Twilight
Moon
Length of Visible Light
Length of Day
Tomorrow will be .
, % of the Moon is Illuminated

Today's Extremes

State Highs State Lows

Community

WunderPhotos

Upload Photos

1,780,473 photos uploaded!

WunderBlogs® & News

Nearby

Air Quality

  Air Quality AQ Index Pollutant
Not available.

Snow Depth

Station Depth Elevation

Earthquake Activity

City Distance Mag. Time & Date
Minimum magnitude displayed is 2.5.

Coastal Water Temperatures

Place Temperature

Nearby Weather Stations